sensor_id;sensor_type;location;lat;lon;timestamp;pressure;altitude;pressure_sealevel;temperature;humidity
46392;BME280;32098;49.448;7.904;2023-04-02T00:11:43;97319.78;;;7.54;82.87
46392;BME280;32098;49.448;7.904;2023-04-02T00:14:28;97274.38;;;7.32;82.74
46392;BME280;32098;49.448;7.904;2023-04-02T00:16:57;97325.66;;;7.56;82.82
46392;BME280;32098;49.448;7.904;2023-04-02T00:19:29;97331.53;;;7.58;82.47
46392;BME280;32098;49.448;7.904;2023-04-02T00:21:57;97329.91;;;7.57;82.75
46392;BME280;32098;49.448;7.904;2023-04-02T00:24:25;97329.25;;;7.62;82.23
46392;BME280;32098;49.448;7.904;2023-04-02T00:26:52;97336.84;;;7.58;82.19
46392;BME280;32098;49.448;7.904;2023-04-02T00:29:19;97341.03;;;7.54;82.90
46392;BME280;32098;49.448;7.904;2023-04-02T00:31:52;97345.28;;;7.55;82.55
46392;BME280;32098;49.448;7.904;2023-04-02T00:34:20;97344.25;;;7.56;82.74
46392;BME280;32098;49.448;7.904;2023-04-02T00:36:48;97346.66;;;7.58;82.70
46392;BME280;32098;49.448;7.904;2023-04-02T00:39:27;97344.13;;;7.63;82.86
46392;BME280;32098;49.448;7.904;2023-04-02T00:41:57;97340.31;;;7.59;83.07
46392;BME280;32098;49.448;7.904;2023-04-02T00:44:32;97341.03;;;7.54;83.59
46392;BME280;32098;49.448;7.904;2023-04-02T00:47:06;97340.22;;;7.54;83.24
46392;BME280;32098;49.448;7.904;2023-04-02T00:49:40;97298.97;;;7.28;82.91
46392;BME280;32098;49.448;7.904;2023-04-02T00:52:19;97342.41;;;7.57;83.07
46392;BME280;32098;49.448;7.904;2023-04-02T00:54:58;97348.75;;;7.56;82.68
46392;BME280;32098;49.448;7.904;2023-04-02T00:57:26;97344.25;;;7.56;82.60
46392;BME280;32098;49.448;7.904;2023-04-02T00:59:58;97342.16;;;7.58;82.72
46392;BME280;32098;49.448;7.904;2023-04-02T01:02:29;97345.41;;;7.60;82.49
46392;BME280;32098;49.448;7.904;2023-04-02T01:07:39;97353.72;;;7.64;82.47
46392;BME280;32098;49.448;7.904;2023-04-02T01:10:29;97352.78;;;7.58;82.90
46392;BME280;32098;49.448;7.904;2023-04-02T01:15:42;97351.03;;;7.52;83.09
46392;BME280;32098;49.448;7.904;2023-04-02T01:24:04;97356.47;;;7.57;82.52
46392;BME280;32098;49.448;7.904;2023-04-02T01:26:51;97357.88;;;7.60;82.19
46392;BME280;32098;49.448;7.904;2023-04-02T01:29:40;97364.69;;;7.56;82.49
46392;BME280;32098;49.448;7.904;2023-04-02T01:32:16;97367.09;;;7.57;82.14
46392;BME280;32098;49.448;7.904;2023-04-02T01:34:46;97362.38;;;7.59;81.87
46392;BME280;32098;49.448;7.904;2023-04-02T01:43:24;97373.47;;;7.56;81.70
46392;BME280;32098;49.448;7.904;2023-04-02T01:45:56;97376.69;;;7.58;81.51
46392;BME280;32098;49.448;7.904;2023-04-02T01:48:28;97382.13;;;7.63;81.68
46392;BME280;32098;49.448;7.904;2023-04-02T01:50:58;97386.75;;;7.56;81.34
46392;BME280;32098;49.448;7.904;2023-04-02T01:53:28;97347.22;;;7.25;81.90
46392;BME280;32098;49.448;7.904;2023-04-02T01:55:59;97380.06;;;7.54;82.53
46392;BME280;32098;49.448;7.904;2023-04-02T01:58:29;97391.38;;;7.49;82.37
46392;BME280;32098;49.448;7.904;2023-04-02T02:01:12;97357.41;;;7.28;82.51
46392;BME280;32098;49.448;7.904;2023-04-02T02:03:42;97370.91;;;7.38;82.88
46392;BME280;32098;49.448;7.904;2023-04-02T02:06:13;97391.38;;;7.49;82.61
46392;BME280;32098;49.448;7.904;2023-04-02T02:09:03;97394.63;;;7.51;83.47
46392;BME280;32098;49.448;7.904;2023-04-02T02:11:33;97392.66;;;7.58;82.99
46392;BME280;32098;49.448;7.904;2023-04-02T02:14:08;97398.41;;;7.55;82.40
46392;BME280;32098;49.448;7.904;2023-04-02T02:16:39;97406.84;;;7.52;83.15
46392;BME280;32098;49.448;7.904;2023-04-02T02:19:19;97406.97;;;7.46;83.66
46392;BME280;32098;49.448;7.904;2023-04-02T02:21:51;97399.22;;;7.44;83.94
46392;BME280;32098;49.448;7.904;2023-04-02T02:24:22;97414.22;;;7.50;83.66
46392;BME280;32098;49.448;7.904;2023-04-02T02:29:41;97416.88;;;7.50;83.48
46392;BME280;32098;49.448;7.904;2023-04-02T02:32:10;97417.81;;;7.44;84.14
46392;BME280;32098;49.448;7.904;2023-04-02T02:34:45;97423.25;;;7.49;83.88
46392;BME280;32098;49.448;7.904;2023-04-02T02:37:18;97418.53;;;7.51;83.30
46392;BME280;32098;49.448;7.904;2023-04-02T02:39:52;97416.78;;;7.45;83.58
46392;BME280;32098;49.448;7.904;2023-04-02T02:42:29;97414.81;;;7.52;83.46
46392;BME280;32098;49.448;7.904;2023-04-02T02:44:59;97420.38;;;7.51;83.20
46392;BME280;32098;49.448;7.904;2023-04-02T02:47:30;97416.19;;;7.43;84.00
46392;BME280;32098;49.448;7.904;2023-04-02T02:50:05;97425.44;;;7.41;84.27
46392;BME280;32098;49.448;7.904;2023-04-02T02:52:37;97431.88;;;7.45;84.31
46392;BME280;32098;49.448;7.904;2023-04-02T02:55:17;97437.00;;;7.46;83.75
46392;BME280;32098;49.448;7.904;2023-04-02T03:00:46;97438.03;;;7.45;83.77
46392;BME280;32098;49.448;7.904;2023-04-02T03:03:20;97430.63;;;7.47;84.30
46392;BME280;32098;49.448;7.904;2023-04-02T03:05:56;97381.22;;;7.05;83.88
46392;BME280;32098;49.448;7.904;2023-04-02T03:08:29;97446.22;;;7.44;84.35
46392;BME280;32098;49.448;7.904;2023-04-02T03:11:09;97411.44;;;7.22;84.42
46392;BME280;32098;49.448;7.904;2023-04-02T03:13:40;97455.00;;;7.44;84.07
46392;BME280;32098;49.448;7.904;2023-04-02T03:16:20;97450.03;;;7.36;84.02
46392;BME280;32098;49.448;7.904;2023-04-02T03:19:01;97455.66;;;7.40;83.83
46392;BME280;32098;49.448;7.904;2023-04-02T03:21:49;97415.56;;;7.18;83.56
46392;BME280;32098;49.448;7.904;2023-04-02T03:27:21;97461.59;;;7.42;84.33
46392;BME280;32098;49.448;7.904;2023-04-02T03:30:02;97465.03;;;7.42;84.38
46392;BME280;32098;49.448;7.904;2023-04-02T03:32:36;97464.44;;;7.40;84.37
46392;BME280;32098;49.448;7.904;2023-04-02T03:35:18;97467.13;;;7.40;84.85
46392;BME280;32098;49.448;7.904;2023-04-02T03:37:58;97468.94;;;7.40;84.42
46392;BME280;32098;49.448;7.904;2023-04-02T03:40:51;97481.91;;;7.36;84.76
46392;BME280;32098;49.448;7.904;2023-04-02T03:43:23;97474.75;;;7.37;85.24
46392;BME280;32098;49.448;7.904;2023-04-02T03:45:59;97482.59;;;7.43;84.85
46392;BME280;32098;49.448;7.904;2023-04-02T03:48:38;97476.59;;;7.36;84.47
46392;BME280;32098;49.448;7.904;2023-04-02T03:51:19;97483.50;;;7.37;85.17
46392;BME280;32098;49.448;7.904;2023-04-02T03:53:48;97488.38;;;7.40;84.90
46392;BME280;32098;49.448;7.904;2023-04-02T03:56:31;97489.63;;;7.38;85.06
46392;BME280;32098;49.448;7.904;2023-04-02T03:59:19;97497.97;;;7.41;84.85
46392;BME280;32098;49.448;7.904;2023-04-02T04:02:06;97497.38;;;7.39;84.59
46392;BME280;32098;49.448;7.904;2023-04-02T04:04:39;97504.28;;;7.40;85.05
46392;BME280;32098;49.448;7.904;2023-04-02T04:07:28;97503.28;;;7.41;85.09
46392;BME280;32098;49.448;7.904;2023-04-02T04:09:58;97509.63;;;7.40;84.99
46392;BME280;32098;49.448;7.904;2023-04-02T04:12:35;97508.59;;;7.41;84.94
46392;BME280;32098;49.448;7.904;2023-04-02T04:15:13;97520.22;;;7.40;85.08
46392;BME280;32098;49.448;7.904;2023-04-02T04:18:20;97522.06;;;7.40;84.96
46392;BME280;32098;49.448;7.904;2023-04-02T04:21:00;97509.22;;;7.25;85.50
46392;BME280;32098;49.448;7.904;2023-04-02T04:23:37;97480.03;;;7.07;85.25
46392;BME280;32098;49.448;7.904;2023-04-02T04:29:26;97535.91;;;7.30;85.05
46392;BME280;32098;49.448;7.904;2023-04-02T04:32:28;97533.25;;;7.30;85.50
46392;BME280;32098;49.448;7.904;2023-04-02T04:37:44;97541.44;;;7.28;86.20
46392;BME280;32098;49.448;7.904;2023-04-02T04:40:23;97541.09;;;7.25;85.96
46392;BME280;32098;49.448;7.904;2023-04-02T04:42:58;97551.84;;;7.30;86.23
46392;BME280;32098;49.448;7.904;2023-04-02T04:48:20;97521.03;;;7.11;85.70
46392;BME280;32098;49.448;7.904;2023-04-02T04:50:53;97557.75;;;7.32;86.03
46392;BME280;32098;49.448;7.904;2023-04-02T04:53:25;97527.16;;;7.11;86.33
46392;BME280;32098;49.448;7.904;2023-04-02T04:55:55;97568.28;;;7.39;85.66
46392;BME280;32098;49.448;7.904;2023-04-02T04:58:48;97570.50;;;7.42;85.61
46392;BME280;32098;49.448;7.904;2023-04-02T05:01:22;97575.06;;;7.35;85.65
46392;BME280;32098;49.448;7.904;2023-04-02T05:04:20;97575.59;;;7.25;85.54
46392;BME280;32098;49.448;7.904;2023-04-02T05:07:12;97570.28;;;7.25;84.91
46392;BME280;32098;49.448;7.904;2023-04-02T05:09:52;97580.25;;;7.11;86.45
46392;BME280;32098;49.448;7.904;2023-04-02T05:12:34;97581.44;;;7.15;86.55
46392;BME280;32098;49.448;7.904;2023-04-02T05:15:27;97586.81;;;7.09;87.40
46392;BME280;32098;49.448;7.904;2023-04-02T05:20:52;97589.75;;;7.01;87.69
46392;BME280;32098;49.448;7.904;2023-04-02T05:23:26;97599.41;;;6.95;87.92
46392;BME280;32098;49.448;7.904;2023-04-02T05:28:33;97604.06;;;7.00;87.65
46392;BME280;32098;49.448;7.904;2023-04-02T05:31:09;97605.09;;;6.99;87.92
46392;BME280;32098;49.448;7.904;2023-04-02T05:33:39;97626.69;;;7.02;88.16
46392;BME280;32098;49.448;7.904;2023-04-02T05:36:11;97622.22;;;7.03;88.02
46392;BME280;32098;49.448;7.904;2023-04-02T05:38:49;97619.69;;;7.08;88.28
46392;BME280;32098;49.448;7.904;2023-04-02T05:44:35;97635.19;;;7.11;88.59
46392;BME280;32098;49.448;7.904;2023-04-02T05:47:13;97636.53;;;7.20;87.65
46392;BME280;32098;49.448;7.904;2023-04-02T05:52:52;97642.34;;;7.10;87.56
46392;BME280;32098;49.448;7.904;2023-04-02T05:56:04;97649.66;;;7.15;87.92
46392;BME280;32098;49.448;7.904;2023-04-02T05:58:19;97653.88;;;7.22;88.61
46392;BME280;32098;49.448;7.904;2023-04-02T06:01:22;97660.34;;;7.08;88.33
46392;BME280;32098;49.448;7.904;2023-04-02T06:06:45;97667.63;;;7.19;88.56
46392;BME280;32098;49.448;7.904;2023-04-02T06:09:18;97668.41;;;7.20;88.63
46392;BME280;32098;49.448;7.904;2023-04-02T06:14:36;97681.03;;;7.24;87.84
46392;BME280;32098;49.448;7.904;2023-04-02T06:17:04;97686.72;;;7.28;87.86
46392;BME280;32098;49.448;7.904;2023-04-02T06:19:36;97692.75;;;7.35;87.99
46392;BME280;32098;49.448;7.904;2023-04-02T06:22:31;97695.97;;;7.37;87.03
46392;BME280;32098;49.448;7.904;2023-04-02T06:25:09;97698.72;;;7.30;86.55
46392;BME280;32098;49.448;7.904;2023-04-02T06:27:42;97703.97;;;7.37;87.03
46392;BME280;32098;49.448;7.904;2023-04-02T06:30:27;97706.25;;;7.34;87.20
46392;BME280;32098;49.448;7.904;2023-04-02T06:32:57;97669.72;;;7.11;87.27
46392;BME280;32098;49.448;7.904;2023-04-02T06:35:26;97675.78;;;7.18;87.50
46392;BME280;32098;49.448;7.904;2023-04-02T06:37:59;97721.09;;;7.41;87.60
46392;BME280;32098;49.448;7.904;2023-04-02T06:40:43;97722.13;;;7.40;87.91
46392;BME280;32098;49.448;7.904;2023-04-02T06:43:44;97728.16;;;7.47;87.88
46392;BME280;32098;49.448;7.904;2023-04-02T06:49:33;97730.97;;;7.52;87.00
46392;BME280;32098;49.448;7.904;2023-04-02T06:52:12;97699.09;;;7.34;85.85
46392;BME280;32098;49.448;7.904;2023-04-02T06:54:40;97738.88;;;7.59;86.02
46392;BME280;32098;49.448;7.904;2023-04-02T06:57:11;97745.19;;;8.24;97.72
46392;BME280;32098;49.448;7.904;2023-04-02T06:59:41;97749.66;;;8.53;93.68
46392;BME280;32098;49.448;7.904;2023-04-02T07:02:28;97747.47;;;8.91;89.45
46392;BME280;32098;49.448;7.904;2023-04-02T07:05:01;97752.56;;;9.16;85.06
46392;BME280;32098;49.448;7.904;2023-04-02T07:07:30;97752.00;;;9.37;83.18
46392;BME280;32098;49.448;7.904;2023-04-02T07:09:58;97759.06;;;9.32;78.02
46392;BME280;32098;49.448;7.904;2023-04-02T07:12:26;97762.75;;;9.07;77.22
46392;BME280;32098;49.448;7.904;2023-04-02T07:14:54;97771.19;;;8.81;78.11
46392;BME280;32098;49.448;7.904;2023-04-02T07:17:21;97753.97;;;8.54;79.04
46392;BME280;32098;49.448;7.904;2023-04-02T07:19:48;97778.50;;;8.56;79.05
46392;BME280;32098;49.448;7.904;2023-04-02T07:22:17;97779.38;;;8.50;80.47
46392;BME280;32098;49.448;7.904;2023-04-02T07:24:47;97782.88;;;8.50;80.99
46392;BME280;32098;49.448;7.904;2023-04-02T07:27:14;97798.16;;;8.55;81.60
46392;BME280;32098;49.448;7.904;2023-04-02T07:29:42;97799.53;;;8.57;81.67
46392;BME280;32098;49.448;7.904;2023-04-02T07:32:12;97797.13;;;8.56;80.61
46392;BME280;32098;49.448;7.904;2023-04-02T07:34:40;97790.16;;;8.55;80.95
46392;BME280;32098;49.448;7.904;2023-04-02T07:37:10;97799.22;;;8.54;80.30
46392;BME280;32098;49.448;7.904;2023-04-02T07:39:38;97816.25;;;8.65;79.86
46392;BME280;32098;49.448;7.904;2023-04-02T07:42:06;97812.66;;;8.59;80.47
46392;BME280;32098;49.448;7.904;2023-04-02T07:44:33;97811.31;;;8.68;80.38
46392;BME280;32098;49.448;7.904;2023-04-02T07:46:59;97809.84;;;8.72;80.06
46392;BME280;32098;49.448;7.904;2023-04-02T07:49:26;97823.97;;;8.84;79.52
46392;BME280;32098;49.448;7.904;2023-04-02T07:51:53;97826.66;;;8.84;78.88
46392;BME280;32098;49.448;7.904;2023-04-02T07:54:19;97827.09;;;8.81;77.78
46392;BME280;32098;49.448;7.904;2023-04-02T07:56:46;97837.88;;;8.86;78.57
46392;BME280;32098;49.448;7.904;2023-04-02T07:59:13;97842.25;;;8.81;76.49
46392;BME280;32098;49.448;7.904;2023-04-02T08:01:43;97842.41;;;8.68;75.75
46392;BME280;32098;49.448;7.904;2023-04-02T08:04:18;97844.91;;;8.51;75.72
46392;BME280;32098;49.448;7.904;2023-04-02T08:06:47;97855.09;;;8.54;77.08
46392;BME280;32098;49.448;7.904;2023-04-02T08:09:15;97858.19;;;8.51;76.49
46392;BME280;32098;49.448;7.904;2023-04-02T08:11:42;97857.97;;;8.52;77.50
46392;BME280;32098;49.448;7.904;2023-04-02T08:14:09;97863.16;;;8.47;76.84
46392;BME280;32098;49.448;7.904;2023-04-02T08:16:50;97865.78;;;8.66;78.47
46392;BME280;32098;49.448;7.904;2023-04-02T08:19:18;97868.88;;;8.81;78.74
46392;BME280;32098;49.448;7.904;2023-04-02T08:21:45;97862.47;;;8.70;76.84
46392;BME280;32098;49.448;7.904;2023-04-02T08:24:13;97868.94;;;8.92;76.85
46392;BME280;32098;49.448;7.904;2023-04-02T08:26:39;97883.28;;;8.91;76.88
46392;BME280;32098;49.448;7.904;2023-04-02T08:29:08;97881.88;;;8.89;76.78
46392;BME280;32098;49.448;7.904;2023-04-02T08:31:35;97880.97;;;8.95;76.90
46392;BME280;32098;49.448;7.904;2023-04-02T08:34:02;97860.88;;;8.81;77.56
46392;BME280;32098;49.448;7.904;2023-04-02T08:36:32;97891.34;;;9.14;77.58
46392;BME280;32098;49.448;7.904;2023-04-02T08:39:00;97896.69;;;9.26;77.36
46392;BME280;32098;49.448;7.904;2023-04-02T08:41:27;97899.34;;;9.38;76.73
46392;BME280;32098;49.448;7.904;2023-04-02T08:44:17;97899.84;;;9.35;75.71
46392;BME280;32098;49.448;7.904;2023-04-02T08:46:54;97905.75;;;9.37;75.36
46392;BME280;32098;49.448;7.904;2023-04-02T08:49:31;97915.00;;;9.34;74.70
46392;BME280;32098;49.448;7.904;2023-04-02T08:52:01;97915.94;;;9.40;74.39
46392;BME280;32098;49.448;7.904;2023-04-02T08:54:30;97916.47;;;9.30;73.22
46392;BME280;32098;49.448;7.904;2023-04-02T08:57:06;97923.19;;;9.21;74.01
46392;BME280;32098;49.448;7.904;2023-04-02T08:59:40;97924.78;;;9.10;74.65
46392;BME280;32098;49.448;7.904;2023-04-02T09:04:58;97930.69;;;8.83;74.81
46392;BME280;32098;49.448;7.904;2023-04-02T09:07:27;97933.31;;;8.71;75.25
46392;BME280;32098;49.448;7.904;2023-04-02T09:09:54;97941.44;;;8.76;76.26
46392;BME280;32098;49.448;7.904;2023-04-02T09:12:27;97944.59;;;8.67;76.15
46392;BME280;32098;49.448;7.904;2023-04-02T09:17:59;97952.06;;;8.58;77.65
46392;BME280;32098;49.448;7.904;2023-04-02T09:20:30;97962.56;;;8.53;77.01
46392;BME280;32098;49.448;7.904;2023-04-02T09:22:56;97954.53;;;8.59;76.76
46392;BME280;32098;49.448;7.904;2023-04-02T09:25:26;97957.19;;;8.78;77.04
46392;BME280;32098;49.448;7.904;2023-04-02T09:27:55;97966.72;;;8.85;77.31
46392;BME280;32098;49.448;7.904;2023-04-02T09:33:17;97967.97;;;8.83;76.28
46392;BME280;32098;49.448;7.904;2023-04-02T09:38:27;97969.06;;;8.93;74.74
46392;BME280;32098;49.448;7.904;2023-04-02T09:41:17;97979.66;;;9.00;74.04
46392;BME280;32098;49.448;7.904;2023-04-02T09:43:44;97988.56;;;9.05;75.24
46392;BME280;32098;49.448;7.904;2023-04-02T09:46:23;97990.94;;;9.13;76.48
46392;BME280;32098;49.448;7.904;2023-04-02T09:48:54;97985.97;;;9.17;76.35
46392;BME280;32098;49.448;7.904;2023-04-02T09:51:33;97996.09;;;9.27;76.57
46392;BME280;32098;49.448;7.904;2023-04-02T09:56:30;97997.28;;;9.42;72.23
46392;BME280;32098;49.448;7.904;2023-04-02T10:01:37;98005.94;;;9.67;70.90
46392;BME280;32098;49.448;7.904;2023-04-02T10:04:27;98008.53;;;9.97;72.54
46392;BME280;32098;49.448;7.904;2023-04-02T10:06:52;98009.81;;;10.18;72.31
46392;BME280;32098;49.448;7.904;2023-04-02T10:09:33;98015.53;;;10.21;71.02
46392;BME280;32098;49.448;7.904;2023-04-02T10:12:04;98018.19;;;10.21;69.76
46392;BME280;32098;49.448;7.904;2023-04-02T10:14:36;98020.72;;;10.05;69.24
46392;BME280;32098;49.448;7.904;2023-04-02T10:17:20;98038.06;;;9.84;71.01
46392;BME280;32098;49.448;7.904;2023-04-02T10:19:53;98028.91;;;8.54;78.78
46392;BME280;32098;49.448;7.904;2023-04-02T10:22:22;98044.50;;;8.08;83.84
46392;BME280;32098;49.448;7.904;2023-04-02T10:24:50;98055.22;;;7.70;86.01
46392;BME280;32098;49.448;7.904;2023-04-02T10:27:26;98010.72;;;7.28;88.84
46392;BME280;32098;49.448;7.904;2023-04-02T10:33:08;98076.50;;;6.68;93.31
46392;BME280;32098;49.448;7.904;2023-04-02T10:41:21;98094.28;;;5.63;95.04
46392;BME280;32098;49.448;7.904;2023-04-02T10:49:40;98120.41;;;5.86;98.23
46392;BME280;32098;49.448;7.904;2023-04-02T10:52:25;98111.41;;;5.61;96.82
46392;BME280;32098;49.448;7.904;2023-04-02T10:54:58;98113.47;;;5.78;97.57
46392;BME280;32098;49.448;7.904;2023-04-02T10:57:37;98128.16;;;5.81;96.53
46392;BME280;32098;49.448;7.904;2023-04-02T11:02:55;98127.88;;;5.50;96.54
46392;BME280;32098;49.448;7.904;2023-04-02T11:05:41;98128.50;;;5.52;98.42
46392;BME280;32098;49.448;7.904;2023-04-02T11:10:46;98110.84;;;5.24;94.18
46392;BME280;32098;49.448;7.904;2023-04-02T11:15:45;98160.69;;;5.49;95.22
46392;BME280;32098;49.448;7.904;2023-04-02T11:18:25;98162.19;;;5.23;94.25
46392;BME280;32098;49.448;7.904;2023-04-02T11:20:57;98181.31;;;5.25;96.28
46392;BME280;32098;49.448;7.904;2023-04-02T11:23:32;98179.31;;;5.27;95.79
46392;BME280;32098;49.448;7.904;2023-04-02T11:29:05;98180.97;;;5.28;96.48
46392;BME280;32098;49.448;7.904;2023-04-02T11:31:36;98179.22;;;5.49;95.37
46392;BME280;32098;49.448;7.904;2023-04-02T11:34:02;98155.91;;;4.97;95.38
46392;BME280;32098;49.448;7.904;2023-04-02T11:39:49;98214.31;;;4.89;96.84
46392;BME280;32098;49.448;7.904;2023-04-02T11:42:25;98208.84;;;4.97;96.60
46392;BME280;32098;49.448;7.904;2023-04-02T11:44:53;98217.00;;;5.02;97.11
46392;BME280;32098;49.448;7.904;2023-04-02T11:47:25;98221.56;;;5.14;98.03
46392;BME280;32098;49.448;7.904;2023-04-02T11:49:58;98239.69;;;5.38;97.36
46392;BME280;32098;49.448;7.904;2023-04-02T11:52:35;98232.97;;;5.08;94.80
46392;BME280;32098;49.448;7.904;2023-04-02T11:55:23;98247.53;;;4.98;94.14
46392;BME280;32098;49.448;7.904;2023-04-02T11:57:59;98242.44;;;5.24;93.74
46392;BME280;32098;49.448;7.904;2023-04-02T12:09:09;98259.44;;;4.81;94.90
46392;BME280;32098;49.448;7.904;2023-04-02T12:11:41;98267.47;;;4.94;95.26
46392;BME280;32098;49.448;7.904;2023-04-02T12:17:17;98270.78;;;5.02;93.60
46392;BME280;32098;49.448;7.904;2023-04-02T12:19:50;98277.00;;;5.16;93.47
46392;BME280;32098;49.448;7.904;2023-04-02T12:22:19;98280.97;;;5.05;93.85
46392;BME280;32098;49.448;7.904;2023-04-02T12:24:47;98289.13;;;5.04;93.10
46392;BME280;32098;49.448;7.904;2023-04-02T12:27:20;98274.88;;;4.56;94.52
46392;BME280;32098;49.448;7.904;2023-04-02T12:29:55;98291.50;;;4.71;96.54
46392;BME280;32098;49.448;7.904;2023-04-02T12:32:26;98297.97;;;4.47;96.35
46392;BME280;32098;49.448;7.904;2023-04-02T12:35:02;98301.22;;;4.64;96.04
46392;BME280;32098;49.448;7.904;2023-04-02T12:37:30;98298.66;;;4.77;94.83
46392;BME280;32098;49.448;7.904;2023-04-02T12:40:03;98306.34;;;4.72;94.16
46392;BME280;32098;49.448;7.904;2023-04-02T12:42:35;98312.53;;;4.58;94.13
46392;BME280;32098;49.448;7.904;2023-04-02T12:45:04;98315.22;;;4.64;92.62
46392;BME280;32098;49.448;7.904;2023-04-02T12:47:31;98311.03;;;4.70;93.35
46392;BME280;32098;49.448;7.904;2023-04-02T12:49:59;98317.00;;;4.79;91.88
46392;BME280;32098;49.448;7.904;2023-04-02T12:52:28;98325.94;;;4.99;90.52
46392;BME280;32098;49.448;7.904;2023-04-02T12:55:00;98333.25;;;4.54;91.37
46392;BME280;32098;49.448;7.904;2023-04-02T12:59:57;98323.50;;;4.76;91.46
46392;BME280;32098;49.448;7.904;2023-04-02T13:02:26;98279.34;;;4.55;90.06
46392;BME280;32098;49.448;7.904;2023-04-02T13:04:55;98328.41;;;5.28;89.86
46392;BME280;32098;49.448;7.904;2023-04-02T13:07:24;98325.28;;;4.97;90.09
46392;BME280;32098;49.448;7.904;2023-04-02T13:09:53;98295.03;;;4.36;90.74
46392;BME280;32098;49.448;7.904;2023-04-02T13:12:33;98344.13;;;4.87;91.58
46392;BME280;32098;49.448;7.904;2023-04-02T13:15:02;98328.41;;;4.58;92.27
46392;BME280;32098;49.448;7.904;2023-04-02T13:17:37;98343.31;;;4.44;92.33
46392;BME280;32098;49.448;7.904;2023-04-02T13:20:53;98352.31;;;4.50;91.21
46392;BME280;32098;49.448;7.904;2023-04-02T13:25:56;98343.28;;;4.59;92.37
46392;BME280;32098;49.448;7.904;2023-04-02T13:28:24;98357.75;;;4.84;91.51
46392;BME280;32098;49.448;7.904;2023-04-02T13:30:51;98347.56;;;4.24;92.38
46392;BME280;32098;49.448;7.904;2023-04-02T13:33:18;98359.97;;;4.24;93.81
46392;BME280;32098;49.448;7.904;2023-04-02T13:35:45;98365.41;;;4.37;91.66
46392;BME280;32098;49.448;7.904;2023-04-02T13:38:12;98376.63;;;4.24;92.22
46392;BME280;32098;49.448;7.904;2023-04-02T13:40:39;98374.56;;;4.20;91.91
46392;BME280;32098;49.448;7.904;2023-04-02T13:43:15;98373.59;;;4.42;91.55
46392;BME280;32098;49.448;7.904;2023-04-02T13:45:47;98379.78;;;3.98;93.02
46392;BME280;32098;49.448;7.904;2023-04-02T13:48:15;98381.31;;;4.07;92.57
46392;BME280;32098;49.448;7.904;2023-04-02T13:50:45;98391.31;;;4.27;93.58
46392;BME280;32098;49.448;7.904;2023-04-02T13:53:19;98397.44;;;4.13;92.02
46392;BME280;32098;49.448;7.904;2023-04-02T13:55:47;98385.34;;;4.03;92.84
46392;BME280;32098;49.448;7.904;2023-04-02T13:58:14;98400.56;;;3.87;93.14
46392;BME280;32098;49.448;7.904;2023-04-02T14:00:41;98394.06;;;4.04;93.53
46392;BME280;32098;49.448;7.904;2023-04-02T14:03:13;98398.97;;;4.22;92.86
46392;BME280;32098;49.448;7.904;2023-04-02T14:06:02;98407.28;;;4.04;92.67
46392;BME280;32098;49.448;7.904;2023-04-02T14:08:44;98404.47;;;4.05;92.30
46392;BME280;32098;49.448;7.904;2023-04-02T14:11:33;98409.72;;;4.35;90.58
46392;BME280;32098;49.448;7.904;2023-04-02T14:17:07;98424.31;;;4.01;91.00
46392;BME280;32098;49.448;7.904;2023-04-02T14:19:47;98426.88;;;4.09;90.80
46392;BME280;32098;49.448;7.904;2023-04-02T14:23:22;98424.97;;;3.74;91.99
46392;BME280;32098;49.448;7.904;2023-04-02T14:28:22;98446.53;;;3.63;92.94
46392;BME280;32098;49.448;7.904;2023-04-02T14:31:17;98455.94;;;3.80;92.75
46392;BME280;32098;49.448;7.904;2023-04-02T14:37:00;98462.38;;;3.49;92.62
46392;BME280;32098;49.448;7.904;2023-04-02T14:39:42;98449.88;;;3.42;93.63
46392;BME280;32098;49.448;7.904;2023-04-02T14:42:13;98466.53;;;3.43;94.16
46392;BME280;32098;49.448;7.904;2023-04-02T14:44:47;98460.16;;;3.52;92.05
46392;BME280;32098;49.448;7.904;2023-04-02T14:47:24;98472.81;;;3.42;93.75
46392;BME280;32098;49.448;7.904;2023-04-02T14:50:03;98467.75;;;3.55;93.31
46392;BME280;32098;49.448;7.904;2023-04-02T14:52:32;98481.78;;;3.70;92.47
46392;BME280;32098;49.448;7.904;2023-04-02T14:55:13;98472.00;;;3.93;91.40
46392;BME280;32098;49.448;7.904;2023-04-02T14:57:46;98478.81;;;3.73;90.82
46392;BME280;32098;49.448;7.904;2023-04-02T15:00:45;98488.44;;;3.66;91.24
46392;BME280;32098;49.448;7.904;2023-04-02T15:03:21;98497.47;;;3.49;91.33
46392;BME280;32098;49.448;7.904;2023-04-02T15:06:04;98493.84;;;3.50;92.37
46392;BME280;32098;49.448;7.904;2023-04-02T15:08:48;98498.81;;;3.30;92.79
46392;BME280;32098;49.448;7.904;2023-04-02T15:11:36;98502.78;;;3.26;92.60
46392;BME280;32098;49.448;7.904;2023-04-02T15:14:24;98494.84;;;3.26;92.50
46392;BME280;32098;49.448;7.904;2023-04-02T15:16:53;98503.75;;;3.33;93.64
46392;BME280;32098;49.448;7.904;2023-04-02T15:19:21;98485.47;;;3.24;91.90
46392;BME280;32098;49.448;7.904;2023-04-02T15:22:27;98508.03;;;3.04;92.51
46392;BME280;32098;49.448;7.904;2023-04-02T15:25:23;98506.00;;;3.14;94.17
46392;BME280;32098;49.448;7.904;2023-04-02T15:28:09;98514.75;;;3.14;93.72
46392;BME280;32098;49.448;7.904;2023-04-02T15:30:40;98506.88;;;3.06;94.08
46392;BME280;32098;49.448;7.904;2023-04-02T15:41:14;98528.81;;;3.07;92.75
46392;BME280;32098;49.448;7.904;2023-04-02T15:43:47;98532.69;;;2.96;92.09
46392;BME280;32098;49.448;7.904;2023-04-02T15:49:36;98528.81;;;3.07;92.21
46392;BME280;32098;49.448;7.904;2023-04-02T15:52:24;98543.00;;;3.06;91.87
46392;BME280;32098;49.448;7.904;2023-04-02T16:00:26;98548.28;;;3.06;90.67
46392;BME280;32098;49.448;7.904;2023-04-02T16:06:19;98575.97;;;3.10;89.86
46392;BME280;32098;49.448;7.904;2023-04-02T16:09:02;98550.50;;;3.17;89.37
46392;BME280;32098;49.448;7.904;2023-04-02T16:11:31;98572.63;;;3.16;89.13
46392;BME280;32098;49.448;7.904;2023-04-02T16:16:46;98585.34;;;3.12;89.19
46392;BME280;32098;49.448;7.904;2023-04-02T16:19:23;98589.94;;;3.18;89.91
46392;BME280;32098;49.448;7.904;2023-04-02T16:24:22;98595.78;;;3.06;89.68
46392;BME280;32098;49.448;7.904;2023-04-02T16:33:16;98613.63;;;2.96;90.45
46392;BME280;32098;49.448;7.904;2023-04-02T16:38:48;98615.56;;;3.02;90.23
46392;BME280;32098;49.448;7.904;2023-04-02T16:44:38;98627.06;;;2.54;91.46